sensor_id;sensor_type;location;lat;lon;timestamp;P1;durP1;ratioP1;P2;durP2;ratioP2
485;SDS011;229;48.734;9.340;2024-02-26T00:00:30;3.60;;;2.88;;
485;SDS011;229;48.734;9.340;2024-02-26T00:02:57;6.57;;;3.60;;
485;SDS011;229;48.734;9.340;2024-02-26T00:05:25;3.40;;;2.80;;
485;SDS011;229;48.734;9.340;2024-02-26T00:07:53;5.35;;;2.60;;
485;SDS011;229;48.734;9.340;2024-02-26T00:10:21;3.47;;;2.72;;
485;SDS011;229;48.734;9.340;2024-02-26T00:12:49;3.65;;;2.50;;
485;SDS011;229;48.734;9.340;2024-02-26T00:15:16;2.67;;;2.40;;
485;SDS011;229;48.734;9.340;2024-02-26T00:17:43;3.10;;;2.70;;
485;SDS011;229;48.734;9.340;2024-02-26T00:20:10;3.90;;;2.80;;
485;SDS011;229;48.734;9.340;2024-02-26T00:22:40;5.70;;;2.85;;
485;SDS011;229;48.734;9.340;2024-02-26T00:25:07;3.13;;;2.13;;
485;SDS011;229;48.734;9.340;2024-02-26T00:27:34;2.35;;;2.13;;
485;SDS011;229;48.734;9.340;2024-02-26T00:30:01;3.75;;;2.80;;
485;SDS011;229;48.734;9.340;2024-02-26T00:32:29;4.30;;;2.30;;
485;SDS011;229;48.734;9.340;2024-02-26T00:34:56;3.08;;;2.40;;
485;SDS011;229;48.734;9.340;2024-02-26T00:37:23;2.95;;;2.00;;
485;SDS011;229;48.734;9.340;2024-02-26T00:39:51;2.75;;;2.00;;
485;SDS011;229;48.734;9.340;2024-02-26T00:42:19;2.38;;;1.80;;
485;SDS011;229;48.734;9.340;2024-02-26T00:44:46;2.67;;;2.30;;
485;SDS011;229;48.734;9.340;2024-02-26T00:47:13;2.67;;;2.03;;
485;SDS011;229;48.734;9.340;2024-02-26T00:49:40;3.50;;;2.20;;
485;SDS011;229;48.734;9.340;2024-02-26T00:52:07;3.30;;;2.65;;
485;SDS011;229;48.734;9.340;2024-02-26T00:54:34;5.97;;;2.65;;
485;SDS011;229;48.734;9.340;2024-02-26T00:57:03;4.82;;;2.50;;
485;SDS011;229;48.734;9.340;2024-02-26T00:59:30;3.05;;;2.45;;
485;SDS011;229;48.734;9.340;2024-02-26T01:01:57;2.35;;;2.15;;
485;SDS011;229;48.734;9.340;2024-02-26T01:04:27;3.13;;;2.05;;
485;SDS011;229;48.734;9.340;2024-02-26T01:06:54;4.85;;;2.53;;
485;SDS011;229;48.734;9.340;2024-02-26T01:09:21;2.95;;;2.40;;
485;SDS011;229;48.734;9.340;2024-02-26T01:11:48;2.97;;;2.40;;
485;SDS011;229;48.734;9.340;2024-02-26T01:14:17;2.65;;;2.13;;
485;SDS011;229;48.734;9.340;2024-02-26T01:16:44;2.08;;;1.52;;
485;SDS011;229;48.734;9.340;2024-02-26T01:19:11;3.75;;;2.25;;
485;SDS011;229;48.734;9.340;2024-02-26T01:21:38;5.82;;;2.10;;
485;SDS011;229;48.734;9.340;2024-02-26T01:24:05;6.57;;;4.00;;
485;SDS011;229;48.734;9.340;2024-02-26T01:26:33;5.65;;;4.10;;
485;SDS011;229;48.734;9.340;2024-02-26T01:29:00;5.25;;;3.00;;
485;SDS011;229;48.734;9.340;2024-02-26T01:31:28;4.25;;;2.95;;
485;SDS011;229;48.734;9.340;2024-02-26T01:33:55;4.32;;;2.88;;
485;SDS011;229;48.734;9.340;2024-02-26T01:36:23;4.20;;;3.15;;
485;SDS011;229;48.734;9.340;2024-02-26T01:38:50;3.33;;;2.80;;
485;SDS011;229;48.734;9.340;2024-02-26T01:41:17;4.97;;;3.45;;
485;SDS011;229;48.734;9.340;2024-02-26T01:43:44;3.88;;;2.88;;
485;SDS011;229;48.734;9.340;2024-02-26T01:46:13;2.60;;;2.47;;
485;SDS011;229;48.734;9.340;2024-02-26T01:48:42;3.38;;;2.67;;
485;SDS011;229;48.734;9.340;2024-02-26T01:51:09;3.45;;;2.90;;
485;SDS011;229;48.734;9.340;2024-02-26T01:53:37;5.40;;;2.75;;
485;SDS011;229;48.734;9.340;2024-02-26T01:56:04;5.78;;;2.95;;
485;SDS011;229;48.734;9.340;2024-02-26T01:58:31;4.65;;;2.95;;
485;SDS011;229;48.734;9.340;2024-02-26T02:00:59;3.95;;;2.83;;
485;SDS011;229;48.734;9.340;2024-02-26T02:03:26;5.15;;;2.20;;
485;SDS011;229;48.734;9.340;2024-02-26T02:05:55;5.18;;;2.45;;
485;SDS011;229;48.734;9.340;2024-02-26T02:08:23;4.18;;;2.40;;
485;SDS011;229;48.734;9.340;2024-02-26T02:10:50;2.83;;;2.00;;
485;SDS011;229;48.734;9.340;2024-02-26T02:13:17;3.67;;;2.58;;
485;SDS011;229;48.734;9.340;2024-02-26T02:15:44;4.47;;;2.60;;
485;SDS011;229;48.734;9.340;2024-02-26T02:18:12;4.20;;;2.50;;
485;SDS011;229;48.734;9.340;2024-02-26T02:20:41;5.35;;;3.20;;
485;SDS011;229;48.734;9.340;2024-02-26T02:23:08;3.78;;;2.85;;
485;SDS011;229;48.734;9.340;2024-02-26T02:25:35;2.50;;;2.40;;
485;SDS011;229;48.734;9.340;2024-02-26T02:28:02;3.35;;;2.70;;
485;SDS011;229;48.734;9.340;2024-02-26T02:30:29;3.90;;;2.90;;
485;SDS011;229;48.734;9.340;2024-02-26T02:32:58;2.80;;;2.50;;
485;SDS011;229;48.734;9.340;2024-02-26T02:35:25;4.22;;;3.10;;
485;SDS011;229;48.734;9.340;2024-02-26T02:37:54;4.00;;;2.95;;
485;SDS011;229;48.734;9.340;2024-02-26T02:40:21;3.45;;;2.90;;
485;SDS011;229;48.734;9.340;2024-02-26T02:42:48;3.08;;;2.70;;
485;SDS011;229;48.734;9.340;2024-02-26T02:45:16;3.83;;;3.00;;
485;SDS011;229;48.734;9.340;2024-02-26T02:47:43;4.28;;;2.85;;
485;SDS011;229;48.734;9.340;2024-02-26T02:50:10;6.22;;;2.35;;
485;SDS011;229;48.734;9.340;2024-02-26T02:52:36;2.83;;;2.30;;
485;SDS011;229;48.734;9.340;2024-02-26T02:55:05;2.75;;;2.60;;
485;SDS011;229;48.734;9.340;2024-02-26T02:57:32;2.92;;;2.58;;
485;SDS011;229;48.734;9.340;2024-02-26T03:00:06;3.90;;;2.72;;
485;SDS011;229;48.734;9.340;2024-02-26T03:02:33;3.20;;;2.70;;
485;SDS011;229;48.734;9.340;2024-02-26T03:05:01;3.65;;;3.05;;
485;SDS011;229;48.734;9.340;2024-02-26T03:07:28;5.22;;;2.83;;
485;SDS011;229;48.734;9.340;2024-02-26T03:09:56;3.67;;;2.35;;
485;SDS011;229;48.734;9.340;2024-02-26T03:12:24;3.55;;;2.53;;
485;SDS011;229;48.734;9.340;2024-02-26T03:14:52;5.78;;;3.05;;
485;SDS011;229;48.734;9.340;2024-02-26T03:17:20;2.90;;;2.60;;
485;SDS011;229;48.734;9.340;2024-02-26T03:19:49;3.30;;;2.72;;
485;SDS011;229;48.734;9.340;2024-02-26T03:22:19;4.30;;;2.60;;
485;SDS011;229;48.734;9.340;2024-02-26T03:24:46;3.78;;;2.60;;
485;SDS011;229;48.734;9.340;2024-02-26T03:27:13;3.42;;;2.88;;
485;SDS011;229;48.734;9.340;2024-02-26T03:29:42;3.67;;;3.17;;
485;SDS011;229;48.734;9.340;2024-02-26T03:32:09;3.20;;;2.70;;
485;SDS011;229;48.734;9.340;2024-02-26T03:34:36;5.00;;;2.85;;
485;SDS011;229;48.734;9.340;2024-02-26T03:37:05;3.13;;;2.70;;
485;SDS011;229;48.734;9.340;2024-02-26T03:39:34;4.97;;;3.05;;
485;SDS011;229;48.734;9.340;2024-02-26T03:42:00;3.35;;;2.50;;
485;SDS011;229;48.734;9.340;2024-02-26T03:44:27;3.38;;;2.78;;
485;SDS011;229;48.734;9.340;2024-02-26T03:46:56;2.88;;;2.70;;
485;SDS011;229;48.734;9.340;2024-02-26T03:49:23;2.20;;;1.80;;
485;SDS011;229;48.734;9.340;2024-02-26T03:51:50;4.72;;;2.10;;
485;SDS011;229;48.734;9.340;2024-02-26T03:54:17;3.70;;;2.25;;
485;SDS011;229;48.734;9.340;2024-02-26T03:56:44;4.10;;;2.53;;
485;SDS011;229;48.734;9.340;2024-02-26T03:59:11;3.00;;;2.50;;
485;SDS011;229;48.734;9.340;2024-02-26T04:01:39;4.65;;;3.00;;
485;SDS011;229;48.734;9.340;2024-02-26T04:04:07;4.38;;;3.03;;
485;SDS011;229;48.734;9.340;2024-02-26T04:06:35;4.93;;;3.05;;
485;SDS011;229;48.734;9.340;2024-02-26T04:09:02;4.90;;;3.20;;
485;SDS011;229;48.734;9.340;2024-02-26T04:11:29;4.43;;;2.75;;
485;SDS011;229;48.734;9.340;2024-02-26T04:13:56;5.28;;;3.05;;
485;SDS011;229;48.734;9.340;2024-02-26T04:16:24;4.72;;;3.45;;
485;SDS011;229;48.734;9.340;2024-02-26T04:18:51;4.50;;;2.50;;
485;SDS011;229;48.734;9.340;2024-02-26T04:21:21;4.18;;;2.70;;
485;SDS011;229;48.734;9.340;2024-02-26T04:23:48;4.95;;;3.25;;
485;SDS011;229;48.734;9.340;2024-02-26T04:26:15;4.55;;;3.20;;
485;SDS011;229;48.734;9.340;2024-02-26T04:28:42;5.00;;;3.03;;
485;SDS011;229;48.734;9.340;2024-02-26T04:31:09;5.95;;;3.10;;
485;SDS011;229;48.734;9.340;2024-02-26T04:33:36;5.47;;;3.30;;
485;SDS011;229;48.734;9.340;2024-02-26T04:36:04;4.10;;;3.20;;
485;SDS011;229;48.734;9.340;2024-02-26T04:38:32;7.15;;;3.80;;
485;SDS011;229;48.734;9.340;2024-02-26T04:41:00;6.50;;;3.78;;
485;SDS011;229;48.734;9.340;2024-02-26T04:43:27;10.93;;;3.80;;
485;SDS011;229;48.734;9.340;2024-02-26T04:45:54;6.05;;;3.70;;
485;SDS011;229;48.734;9.340;2024-02-26T04:48:22;4.57;;;3.30;;
485;SDS011;229;48.734;9.340;2024-02-26T04:50:49;5.97;;;3.47;;
485;SDS011;229;48.734;9.340;2024-02-26T04:53:17;5.55;;;3.92;;
485;SDS011;229;48.734;9.340;2024-02-26T04:55:45;3.65;;;3.08;;
485;SDS011;229;48.734;9.340;2024-02-26T04:58:12;8.23;;;3.53;;
485;SDS011;229;48.734;9.340;2024-02-26T05:00:39;7.45;;;3.95;;
485;SDS011;229;48.734;9.340;2024-02-26T05:03:06;5.20;;;3.80;;
485;SDS011;229;48.734;9.340;2024-02-26T05:05:38;4.45;;;3.50;;
485;SDS011;229;48.734;9.340;2024-02-26T05:08:05;4.20;;;3.22;;
485;SDS011;229;48.734;9.340;2024-02-26T05:10:33;5.32;;;3.80;;
485;SDS011;229;48.734;9.340;2024-02-26T05:13:05;6.28;;;3.20;;
485;SDS011;229;48.734;9.340;2024-02-26T05:15:32;5.70;;;3.67;;
485;SDS011;229;48.734;9.340;2024-02-26T05:17:59;4.25;;;3.70;;
485;SDS011;229;48.734;9.340;2024-02-26T05:20:27;7.70;;;4.00;;
485;SDS011;229;48.734;9.340;2024-02-26T05:22:54;4.65;;;3.40;;
485;SDS011;229;48.734;9.340;2024-02-26T05:25:23;6.60;;;3.60;;
485;SDS011;229;48.734;9.340;2024-02-26T05:27:51;4.20;;;3.70;;
485;SDS011;229;48.734;9.340;2024-02-26T05:30:19;6.40;;;3.90;;
485;SDS011;229;48.734;9.340;2024-02-26T05:32:46;5.50;;;3.70;;
485;SDS011;229;48.734;9.340;2024-02-26T05:35:14;5.90;;;4.38;;
485;SDS011;229;48.734;9.340;2024-02-26T05:37:41;5.93;;;4.10;;
485;SDS011;229;48.734;9.340;2024-02-26T05:40:08;4.97;;;3.80;;
485;SDS011;229;48.734;9.340;2024-02-26T05:42:35;7.03;;;3.70;;
485;SDS011;229;48.734;9.340;2024-02-26T05:45:03;4.97;;;3.83;;
485;SDS011;229;48.734;9.340;2024-02-26T05:47:33;7.13;;;3.80;;
485;SDS011;229;48.734;9.340;2024-02-26T05:50:00;6.05;;;4.50;;
485;SDS011;229;48.734;9.340;2024-02-26T05:52:27;5.85;;;4.32;;
485;SDS011;229;48.734;9.340;2024-02-26T05:54:54;7.35;;;4.65;;
485;SDS011;229;48.734;9.340;2024-02-26T05:57:21;9.90;;;4.78;;
485;SDS011;229;48.734;9.340;2024-02-26T05:59:49;5.68;;;4.30;;
485;SDS011;229;48.734;9.340;2024-02-26T06:02:16;9.15;;;4.20;;
485;SDS011;229;48.734;9.340;2024-02-26T06:04:44;5.15;;;3.58;;
485;SDS011;229;48.734;9.340;2024-02-26T06:07:12;7.57;;;4.30;;
485;SDS011;229;48.734;9.340;2024-02-26T06:09:39;6.43;;;4.15;;
485;SDS011;229;48.734;9.340;2024-02-26T06:12:06;5.55;;;3.75;;
485;SDS011;229;48.734;9.340;2024-02-26T06:14:33;4.80;;;4.20;;
485;SDS011;229;48.734;9.340;2024-02-26T06:17:01;7.22;;;4.90;;
485;SDS011;229;48.734;9.340;2024-02-26T06:19:28;6.93;;;4.43;;
485;SDS011;229;48.734;9.340;2024-02-26T06:21:56;5.32;;;3.78;;
485;SDS011;229;48.734;9.340;2024-02-26T06:24:24;8.32;;;4.50;;
485;SDS011;229;48.734;9.340;2024-02-26T06:26:51;5.82;;;4.00;;
485;SDS011;229;48.734;9.340;2024-02-26T06:29:18;6.05;;;4.43;;
485;SDS011;229;48.734;9.340;2024-02-26T06:31:45;4.97;;;4.13;;
485;SDS011;229;48.734;9.340;2024-02-26T06:34:13;5.80;;;4.28;;
485;SDS011;229;48.734;9.340;2024-02-26T06:36:40;4.78;;;3.67;;
485;SDS011;229;48.734;9.340;2024-02-26T06:39:09;3.97;;;3.05;;
485;SDS011;229;48.734;9.340;2024-02-26T06:41:37;3.92;;;3.03;;
485;SDS011;229;48.734;9.340;2024-02-26T06:44:04;4.25;;;3.78;;
485;SDS011;229;48.734;9.340;2024-02-26T06:46:32;6.20;;;3.40;;
485;SDS011;229;48.734;9.340;2024-02-26T06:48:59;3.75;;;3.00;;
485;SDS011;229;48.734;9.340;2024-02-26T06:51:26;5.75;;;3.40;;
485;SDS011;229;48.734;9.340;2024-02-26T06:53:53;5.55;;;3.20;;
485;SDS011;229;48.734;9.340;2024-02-26T06:56:22;6.45;;;3.03;;
485;SDS011;229;48.734;9.340;2024-02-26T06:58:49;4.15;;;2.90;;
485;SDS011;229;48.734;9.340;2024-02-26T07:01:16;5.85;;;3.50;;
485;SDS011;229;48.734;9.340;2024-02-26T07:03:43;7.05;;;3.85;;
485;SDS011;229;48.734;9.340;2024-02-26T07:06:10;11.45;;;4.22;;
485;SDS011;229;48.734;9.340;2024-02-26T07:08:38;6.93;;;4.30;;
485;SDS011;229;48.734;9.340;2024-02-26T07:11:06;6.25;;;4.18;;
485;SDS011;229;48.734;9.340;2024-02-26T07:13:36;6.15;;;4.15;;
485;SDS011;229;48.734;9.340;2024-02-26T07:16:03;8.27;;;4.95;;
485;SDS011;229;48.734;9.340;2024-02-26T07:18:30;7.50;;;3.92;;
485;SDS011;229;48.734;9.340;2024-02-26T07:20:58;5.65;;;3.65;;
485;SDS011;229;48.734;9.340;2024-02-26T07:23:28;13.07;;;5.78;;
485;SDS011;229;48.734;9.340;2024-02-26T07:25:55;9.35;;;4.15;;
485;SDS011;229;48.734;9.340;2024-02-26T07:28:23;6.78;;;3.83;;
485;SDS011;229;48.734;9.340;2024-02-26T07:30:52;6.63;;;3.72;;
485;SDS011;229;48.734;9.340;2024-02-26T07:33:19;4.60;;;3.30;;
485;SDS011;229;48.734;9.340;2024-02-26T07:35:46;6.93;;;3.30;;
485;SDS011;229;48.734;9.340;2024-02-26T07:38:13;7.43;;;3.67;;
485;SDS011;229;48.734;9.340;2024-02-26T07:40:40;8.18;;;3.78;;
485;SDS011;229;48.734;9.340;2024-02-26T07:43:07;4.22;;;2.78;;
485;SDS011;229;48.734;9.340;2024-02-26T07:45:35;7.65;;;3.63;;
485;SDS011;229;48.734;9.340;2024-02-26T07:48:04;6.25;;;3.63;;
485;SDS011;229;48.734;9.340;2024-02-26T07:50:31;6.95;;;4.00;;
485;SDS011;229;48.734;9.340;2024-02-26T07:52:59;8.32;;;4.00;;
485;SDS011;229;48.734;9.340;2024-02-26T07:55:26;5.30;;;3.90;;
485;SDS011;229;48.734;9.340;2024-02-26T07:57:53;12.15;;;3.88;;
485;SDS011;229;48.734;9.340;2024-02-26T08:00:21;8.55;;;4.30;;
485;SDS011;229;48.734;9.340;2024-02-26T08:02:48;5.47;;;3.92;;
485;SDS011;229;48.734;9.340;2024-02-26T08:05:16;9.18;;;4.63;;
485;SDS011;229;48.734;9.340;2024-02-26T08:07:44;5.30;;;4.10;;
485;SDS011;229;48.734;9.340;2024-02-26T08:10:11;6.25;;;4.43;;
485;SDS011;229;48.734;9.340;2024-02-26T08:12:38;7.15;;;4.35;;
485;SDS011;229;48.734;9.340;2024-02-26T08:15:06;5.18;;;4.55;;
485;SDS011;229;48.734;9.340;2024-02-26T08:17:34;9.57;;;5.28;;
485;SDS011;229;48.734;9.340;2024-02-26T08:20:01;6.85;;;4.40;;
485;SDS011;229;48.734;9.340;2024-02-26T08:22:30;7.68;;;4.65;;
485;SDS011;229;48.734;9.340;2024-02-26T08:24:58;7.63;;;4.55;;
485;SDS011;229;48.734;9.340;2024-02-26T08:27:25;6.60;;;4.38;;
485;SDS011;229;48.734;9.340;2024-02-26T08:29:52;7.00;;;5.00;;
485;SDS011;229;48.734;9.340;2024-02-26T08:32:19;8.90;;;5.25;;
485;SDS011;229;48.734;9.340;2024-02-26T08:34:46;9.73;;;4.90;;
485;SDS011;229;48.734;9.340;2024-02-26T08:37:13;6.88;;;4.47;;
485;SDS011;229;48.734;9.340;2024-02-26T08:39:42;5.50;;;4.60;;
485;SDS011;229;48.734;9.340;2024-02-26T08:42:11;6.75;;;4.30;;
485;SDS011;229;48.734;9.340;2024-02-26T08:44:38;8.27;;;4.68;;
485;SDS011;229;48.734;9.340;2024-02-26T08:47:05;6.80;;;4.15;;
485;SDS011;229;48.734;9.340;2024-02-26T08:49:32;6.40;;;4.35;;
485;SDS011;229;48.734;9.340;2024-02-26T08:51:59;8.38;;;4.55;;
485;SDS011;229;48.734;9.340;2024-02-26T08:54:26;6.85;;;5.15;;
485;SDS011;229;48.734;9.340;2024-02-26T08:56:55;6.20;;;5.00;;
485;SDS011;229;48.734;9.340;2024-02-26T08:59:22;10.57;;;5.35;;
485;SDS011;229;48.734;9.340;2024-02-26T09:01:49;8.38;;;5.22;;
485;SDS011;229;48.734;9.340;2024-02-26T09:04:16;11.80;;;5.05;;
485;SDS011;229;48.734;9.340;2024-02-26T09:06:43;7.80;;;5.00;;
485;SDS011;229;48.734;9.340;2024-02-26T09:09:10;7.30;;;5.05;;
485;SDS011;229;48.734;9.340;2024-02-26T09:11:38;7.85;;;5.78;;
485;SDS011;229;48.734;9.340;2024-02-26T09:14:06;8.30;;;5.35;;
485;SDS011;229;48.734;9.340;2024-02-26T09:16:33;12.35;;;5.65;;
485;SDS011;229;48.734;9.340;2024-02-26T09:19:01;14.15;;;5.32;;
485;SDS011;229;48.734;9.340;2024-02-26T09:21:28;11.60;;;5.97;;
485;SDS011;229;48.734;9.340;2024-02-26T09:23:56;12.32;;;5.60;;
485;SDS011;229;48.734;9.340;2024-02-26T09:26:23;10.73;;;5.80;;
485;SDS011;229;48.734;9.340;2024-02-26T09:28:50;10.15;;;6.10;;
485;SDS011;229;48.734;9.340;2024-02-26T09:31:18;9.93;;;5.55;;
485;SDS011;229;48.734;9.340;2024-02-26T09:33:45;9.20;;;5.78;;
485;SDS011;229;48.734;9.340;2024-02-26T09:36:13;13.32;;;5.88;;
485;SDS011;229;48.734;9.340;2024-02-26T09:38:40;15.40;;;8.90;;
485;SDS011;229;48.734;9.340;2024-02-26T09:41:07;8.80;;;5.88;;
485;SDS011;229;48.734;9.340;2024-02-26T09:43:40;16.25;;;7.32;;
485;SDS011;229;48.734;9.340;2024-02-26T09:46:11;12.85;;;6.40;;
485;SDS011;229;48.734;9.340;2024-02-26T09:48:40;10.77;;;6.03;;
485;SDS011;229;48.734;9.340;2024-02-26T09:51:09;10.15;;;5.53;;
485;SDS011;229;48.734;9.340;2024-02-26T09:53:38;11.52;;;5.80;;
485;SDS011;229;48.734;9.340;2024-02-26T09:56:07;12.18;;;5.57;;
485;SDS011;229;48.734;9.340;2024-02-26T09:58:35;10.23;;;5.10;;
485;SDS011;229;48.734;9.340;2024-02-26T10:01:03;7.82;;;4.57;;
485;SDS011;229;48.734;9.340;2024-02-26T10:03:34;6.32;;;4.72;;
485;SDS011;229;48.734;9.340;2024-02-26T10:06:05;8.77;;;5.65;;
485;SDS011;229;48.734;9.340;2024-02-26T10:08:33;6.90;;;4.88;;
485;SDS011;229;48.734;9.340;2024-02-26T10:11:02;13.93;;;4.80;;
485;SDS011;229;48.734;9.340;2024-02-26T10:13:29;10.23;;;5.60;;
485;SDS011;229;48.734;9.340;2024-02-26T10:15:56;9.35;;;4.65;;
485;SDS011;229;48.734;9.340;2024-02-26T10:18:23;12.05;;;5.38;;
485;SDS011;229;48.734;9.340;2024-02-26T10:21:00;7.05;;;5.00;;
485;SDS011;229;48.734;9.340;2024-02-26T10:23:29;7.53;;;4.57;;
485;SDS011;229;48.734;9.340;2024-02-26T10:25:56;9.13;;;5.68;;
485;SDS011;229;48.734;9.340;2024-02-26T10:28:23;6.10;;;4.57;;
485;SDS011;229;48.734;9.340;2024-02-26T10:30:51;5.80;;;4.45;;
485;SDS011;229;48.734;9.340;2024-02-26T10:33:18;6.93;;;4.75;;
485;SDS011;229;48.734;9.340;2024-02-26T10:35:46;7.53;;;5.00;;
485;SDS011;229;48.734;9.340;2024-02-26T10:38:13;10.55;;;5.00;;
485;SDS011;229;48.734;9.340;2024-02-26T10:40:46;18.77;;;5.38;;
485;SDS011;229;48.734;9.340;2024-02-26T10:43:15;6.28;;;4.47;;
485;SDS011;229;48.734;9.340;2024-02-26T10:45:43;5.47;;;4.30;;
485;SDS011;229;48.734;9.340;2024-02-26T10:48:12;6.22;;;4.63;;
485;SDS011;229;48.734;9.340;2024-02-26T10:50:40;4.32;;;3.78;;
485;SDS011;229;48.734;9.340;2024-02-26T10:53:13;6.18;;;3.95;;
485;SDS011;229;48.734;9.340;2024-02-26T10:55:42;8.05;;;4.05;;
485;SDS011;229;48.734;9.340;2024-02-26T10:58:11;9.35;;;3.72;;
485;SDS011;229;48.734;9.340;2024-02-26T11:00:39;6.95;;;4.28;;
485;SDS011;229;48.734;9.340;2024-02-26T11:03:06;6.70;;;4.20;;
485;SDS011;229;48.734;9.340;2024-02-26T11:05:35;7.85;;;4.13;;
485;SDS011;229;48.734;9.340;2024-02-26T11:08:03;5.05;;;3.72;;
485;SDS011;229;48.734;9.340;2024-02-26T11:10:31;8.75;;;4.40;;
485;SDS011;229;48.734;9.340;2024-02-26T11:12:59;5.90;;;4.07;;
485;SDS011;229;48.734;9.340;2024-02-26T11:15:28;8.80;;;4.47;;
485;SDS011;229;48.734;9.340;2024-02-26T11:17:57;7.97;;;4.40;;
485;SDS011;229;48.734;9.340;2024-02-26T11:20:25;12.13;;;4.40;;
485;SDS011;229;48.734;9.340;2024-02-26T11:22:55;10.45;;;4.80;;
485;SDS011;229;48.734;9.340;2024-02-26T11:25:22;5.82;;;3.72;;
485;SDS011;229;48.734;9.340;2024-02-26T11:27:50;6.25;;;3.45;;
485;SDS011;229;48.734;9.340;2024-02-26T11:30:18;7.13;;;4.03;;
485;SDS011;229;48.734;9.340;2024-02-26T11:32:47;5.93;;;3.58;;
485;SDS011;229;48.734;9.340;2024-02-26T11:35:15;5.28;;;3.95;;
485;SDS011;229;48.734;9.340;2024-02-26T11:37:51;11.10;;;4.78;;
485;SDS011;229;48.734;9.340;2024-02-26T11:40:18;6.80;;;4.20;;
485;SDS011;229;48.734;9.340;2024-02-26T11:42:45;6.75;;;4.10;;
485;SDS011;229;48.734;9.340;2024-02-26T11:48:02;7.72;;;5.18;;
485;SDS011;229;48.734;9.340;2024-02-26T11:50:35;10.70;;;5.43;;
485;SDS011;229;48.734;9.340;2024-02-26T11:53:21;10.70;;;4.60;;
485;SDS011;229;48.734;9.340;2024-02-26T11:56:03;13.10;;;4.60;;
485;SDS011;229;48.734;9.340;2024-02-26T11:58:38;11.23;;;4.80;;
485;SDS011;229;48.734;9.340;2024-02-26T12:01:06;11.25;;;4.72;;
485;SDS011;229;48.734;9.340;2024-02-26T12:03:34;9.98;;;5.65;;
485;SDS011;229;48.734;9.340;2024-02-26T12:06:02;10.88;;;5.47;;
485;SDS011;229;48.734;9.340;2024-02-26T12:08:30;7.93;;;4.78;;
485;SDS011;229;48.734;9.340;2024-02-26T12:11:01;7.30;;;4.70;;
485;SDS011;229;48.734;9.340;2024-02-26T12:13:29;4.90;;;4.28;;
485;SDS011;229;48.734;9.340;2024-02-26T12:15:57;7.07;;;4.13;;
485;SDS011;229;48.734;9.340;2024-02-26T12:18:24;8.35;;;5.15;;
485;SDS011;229;48.734;9.340;2024-02-26T12:20:59;6.18;;;3.60;;
485;SDS011;229;48.734;9.340;2024-02-26T12:23:27;7.03;;;3.40;;
485;SDS011;229;48.734;9.340;2024-02-26T12:25:54;7.47;;;4.10;;
485;SDS011;229;48.734;9.340;2024-02-26T12:28:27;4.40;;;3.60;;
485;SDS011;229;48.734;9.340;2024-02-26T12:30:54;4.72;;;3.30;;
485;SDS011;229;48.734;9.340;2024-02-26T12:33:21;5.78;;;3.70;;
485;SDS011;229;48.734;9.340;2024-02-26T12:35:50;9.05;;;5.63;;
485;SDS011;229;48.734;9.340;2024-02-26T12:38:22;8.38;;;5.35;;
485;SDS011;229;48.734;9.340;2024-02-26T12:40:49;4.25;;;3.55;;
485;SDS011;229;48.734;9.340;2024-02-26T12:43:16;4.70;;;3.72;;
485;SDS011;229;48.734;9.340;2024-02-26T12:45:44;6.45;;;4.00;;
485;SDS011;229;48.734;9.340;2024-02-26T12:48:12;4.75;;;3.53;;
485;SDS011;229;48.734;9.340;2024-02-26T12:50:39;2.75;;;2.35;;
485;SDS011;229;48.734;9.340;2024-02-26T12:53:06;2.97;;;2.50;;
485;SDS011;229;48.734;9.340;2024-02-26T12:55:35;2.97;;;2.47;;
485;SDS011;229;48.734;9.340;2024-02-26T12:58:04;3.58;;;2.80;;
485;SDS011;229;48.734;9.340;2024-02-26T13:00:31;6.57;;;2.40;;
485;SDS011;229;48.734;9.340;2024-02-26T13:02:59;3.72;;;2.10;;
485;SDS011;229;48.734;9.340;2024-02-26T13:05:26;2.97;;;2.30;;
485;SDS011;229;48.734;9.340;2024-02-26T13:07:54;2.35;;;2.15;;
485;SDS011;229;48.734;9.340;2024-02-26T13:10:22;2.97;;;2.00;;
485;SDS011;229;48.734;9.340;2024-02-26T13:12:51;3.72;;;2.30;;
485;SDS011;229;48.734;9.340;2024-02-26T13:15:19;3.22;;;2.10;;
485;SDS011;229;48.734;9.340;2024-02-26T13:17:46;3.15;;;2.00;;
485;SDS011;229;48.734;9.340;2024-02-26T13:20:24;4.68;;;1.80;;
485;SDS011;229;48.734;9.340;2024-02-26T13:22:52;1.98;;;1.88;;
485;SDS011;229;48.734;9.340;2024-02-26T13:25:26;2.90;;;1.92;;
485;SDS011;229;48.734;9.340;2024-02-26T13:27:54;2.22;;;2.03;;
485;SDS011;229;48.734;9.340;2024-02-26T13:30:31;2.00;;;1.90;;
485;SDS011;229;48.734;9.340;2024-02-26T13:33:06;2.28;;;2.08;;
485;SDS011;229;48.734;9.340;2024-02-26T13:35:34;2.03;;;1.80;;
485;SDS011;229;48.734;9.340;2024-02-26T13:38:01;1.80;;;1.70;;
485;SDS011;229;48.734;9.340;2024-02-26T13:40:29;1.70;;;1.60;;
485;SDS011;229;48.734;9.340;2024-02-26T13:42:57;2.28;;;2.08;;
485;SDS011;229;48.734;9.340;2024-02-26T13:45:24;1.67;;;1.58;;
485;SDS011;229;48.734;9.340;2024-02-26T13:47:52;1.95;;;1.75;;
485;SDS011;229;48.734;9.340;2024-02-26T13:50:19;2.75;;;1.80;;
485;SDS011;229;48.734;9.340;2024-02-26T13:52:48;2.10;;;1.95;;
485;SDS011;229;48.734;9.340;2024-02-26T13:55:18;1.98;;;1.90;;
485;SDS011;229;48.734;9.340;2024-02-26T13:57:47;2.00;;;1.90;;
485;SDS011;229;48.734;9.340;2024-02-26T14:00:18;3.97;;;2.13;;
485;SDS011;229;48.734;9.340;2024-02-26T14:02:45;4.30;;;2.53;;
485;SDS011;229;48.734;9.340;2024-02-26T14:05:12;3.28;;;2.50;;
485;SDS011;229;48.734;9.340;2024-02-26T14:07:40;4.93;;;2.60;;
485;SDS011;229;48.734;9.340;2024-02-26T14:10:07;2.90;;;2.70;;
485;SDS011;229;48.734;9.340;2024-02-26T14:12:35;3.42;;;2.65;;
485;SDS011;229;48.734;9.340;2024-02-26T14:15:03;4.40;;;2.05;;
485;SDS011;229;48.734;9.340;2024-02-26T14:17:31;2.42;;;2.25;;
485;SDS011;229;48.734;9.340;2024-02-26T14:19:58;2.20;;;2.00;;
485;SDS011;229;48.734;9.340;2024-02-26T14:22:26;3.53;;;2.42;;
485;SDS011;229;48.734;9.340;2024-02-26T14:24:53;1.90;;;1.80;;
485;SDS011;229;48.734;9.340;2024-02-26T14:27:20;3.28;;;2.20;;
485;SDS011;229;48.734;9.340;2024-02-26T14:29:47;3.08;;;2.20;;
485;SDS011;229;48.734;9.340;2024-02-26T14:32:15;4.53;;;2.20;;
485;SDS011;229;48.734;9.340;2024-02-26T14:34:44;2.70;;;2.25;;
485;SDS011;229;48.734;9.340;2024-02-26T14:37:11;2.20;;;2.00;;
485;SDS011;229;48.734;9.340;2024-02-26T14:39:38;3.17;;;1.73;;
485;SDS011;229;48.734;9.340;2024-02-26T14:42:05;2.53;;;1.80;;
485;SDS011;229;48.734;9.340;2024-02-26T14:44:32;2.35;;;2.03;;
485;SDS011;229;48.734;9.340;2024-02-26T14:47:00;1.92;;;1.85;;
485;SDS011;229;48.734;9.340;2024-02-26T14:49:27;1.75;;;1.75;;
485;SDS011;229;48.734;9.340;2024-02-26T14:51:57;2.10;;;1.92;;
485;SDS011;229;48.734;9.340;2024-02-26T14:54:24;3.63;;;2.30;;
485;SDS011;229;48.734;9.340;2024-02-26T14:56:51;2.55;;;2.00;;
485;SDS011;229;48.734;9.340;2024-02-26T14:59:19;1.75;;;1.65;;
485;SDS011;229;48.734;9.340;2024-02-26T15:01:46;2.55;;;1.80;;
485;SDS011;229;48.734;9.340;2024-02-26T15:04:13;2.28;;;2.00;;
485;SDS011;229;48.734;9.340;2024-02-26T15:06:40;2.70;;;2.10;;
485;SDS011;229;48.734;9.340;2024-02-26T15:09:09;2.75;;;2.20;;
485;SDS011;229;48.734;9.340;2024-02-26T15:11:37;2.38;;;2.17;;
485;SDS011;229;48.734;9.340;2024-02-26T15:14:05;3.08;;;1.95;;
485;SDS011;229;48.734;9.340;2024-02-26T15:16:32;2.65;;;2.10;;
485;SDS011;229;48.734;9.340;2024-02-26T15:18:59;4.03;;;2.25;;
485;SDS011;229;48.734;9.340;2024-02-26T15:21:27;2.30;;;2.10;;
485;SDS011;229;48.734;9.340;2024-02-26T15:23:54;2.50;;;2.30;;
485;SDS011;229;48.734;9.340;2024-02-26T15:26:23;3.97;;;3.00;;
485;SDS011;229;48.734;9.340;2024-02-26T15:28:51;3.25;;;2.95;;
485;SDS011;229;48.734;9.340;2024-02-26T15:31:19;3.50;;;3.08;;
485;SDS011;229;48.734;9.340;2024-02-26T15:33:46;6.32;;;3.25;;
485;SDS011;229;48.734;9.340;2024-02-26T15:36:13;6.72;;;3.90;;
485;SDS011;229;48.734;9.340;2024-02-26T15:38:40;5.13;;;3.22;;
485;SDS011;229;48.734;9.340;2024-02-26T15:41:10;8.63;;;3.50;;
485;SDS011;229;48.734;9.340;2024-02-26T15:43:39;3.58;;;3.22;;
485;SDS011;229;48.734;9.340;2024-02-26T15:46:07;3.67;;;3.05;;
485;SDS011;229;48.734;9.340;2024-02-26T15:48:35;3.38;;;3.20;;
485;SDS011;229;48.734;9.340;2024-02-26T15:51:03;3.40;;;3.15;;